sensor_id;sensor_type;location;lat;lon;timestamp;pressure;altitude;pressure_sealevel;temperature;humidity
5651;BME280;40241;52.684;9.758;2022-11-28T00:00:26;101296.34;;;8.86;70.08
5651;BME280;40241;52.684;9.758;2022-11-28T00:02:52;101294.69;;;8.80;70.26
5651;BME280;40241;52.684;9.758;2022-11-28T00:05:17;101270.63;;;8.75;70.17
5651;BME280;40241;52.684;9.758;2022-11-28T00:07:43;101267.28;;;8.71;70.38
5651;BME280;40241;52.684;9.758;2022-11-28T00:10:08;101258.75;;;8.69;70.65
5651;BME280;40241;52.684;9.758;2022-11-28T00:12:35;101247.03;;;8.68;70.58
5651;BME280;40241;52.684;9.758;2022-11-28T00:15:00;101245.06;;;8.69;70.63
5651;BME280;40241;52.684;9.758;2022-11-28T00:17:26;101237.28;;;8.67;70.64
5651;BME280;40241;52.684;9.758;2022-11-28T00:19:51;101227.06;;;8.68;70.68
5651;BME280;40241;52.684;9.758;2022-11-28T00:22:16;101292.91;;;8.68;70.78
5651;BME280;40241;52.684;9.758;2022-11-28T00:24:42;101217.78;;;8.65;70.75
5651;BME280;40241;52.684;9.758;2022-11-28T00:27:07;101228.75;;;8.65;70.80
5651;BME280;40241;52.684;9.758;2022-11-28T00:29:32;101237.56;;;8.69;70.80
5651;BME280;40241;52.684;9.758;2022-11-28T00:31:58;101233.50;;;8.65;70.64
5651;BME280;40241;52.684;9.758;2022-11-28T00:34:23;101211.38;;;8.68;70.68
5651;BME280;40241;52.684;9.758;2022-11-28T00:36:49;101179.84;;;8.64;70.72
5651;BME280;40241;52.684;9.758;2022-11-28T00:39:15;101181.38;;;8.65;70.62
5651;BME280;40241;52.684;9.758;2022-11-28T00:41:41;101200.91;;;8.58;70.65
5651;BME280;40241;52.684;9.758;2022-11-28T00:44:07;101199.97;;;8.61;70.83
5651;BME280;40241;52.684;9.758;2022-11-28T00:46:33;101173.31;;;8.61;70.62
5651;BME280;40241;52.684;9.758;2022-11-28T00:48:58;101171.63;;;8.64;70.80
5651;BME280;40241;52.684;9.758;2022-11-28T00:51:27;101196.31;;;8.64;70.84
5651;BME280;40241;52.684;9.758;2022-11-28T00:53:55;101184.88;;;8.65;70.76
5651;BME280;40241;52.684;9.758;2022-11-28T00:56:23;101200.09;;;8.66;70.66
5651;BME280;40241;52.684;9.758;2022-11-28T00:58:50;101208.16;;;8.70;70.93
5651;BME280;40241;52.684;9.758;2022-11-28T01:03:46;101223.50;;;8.76;70.55
5651;BME280;40241;52.684;9.758;2022-11-28T01:06:22;101234.78;;;8.78;70.47
5651;BME280;40241;52.684;9.758;2022-11-28T01:08:48;101230.06;;;8.79;70.53
5651;BME280;40241;52.684;9.758;2022-11-28T01:11:14;101208.69;;;8.83;70.33
5651;BME280;40241;52.684;9.758;2022-11-28T01:13:39;101195.75;;;8.83;70.36
5651;BME280;40241;52.684;9.758;2022-11-28T01:16:05;101210.38;;;8.80;70.18
5651;BME280;40241;52.684;9.758;2022-11-28T01:18:31;101198.38;;;8.78;70.28
5651;BME280;40241;52.684;9.758;2022-11-28T01:20:56;101201.56;;;8.76;70.35
5651;BME280;40241;52.684;9.758;2022-11-28T01:23:21;101191.13;;;8.66;70.04
5651;BME280;40241;52.684;9.758;2022-11-28T01:25:47;101193.03;;;8.74;70.40
5651;BME280;40241;52.684;9.758;2022-11-28T01:28:12;101179.03;;;8.72;70.32
5651;BME280;40241;52.684;9.758;2022-11-28T01:30:38;101172.78;;;8.72;70.18
5651;BME280;40241;52.684;9.758;2022-11-28T01:33:03;101198.28;;;8.63;70.16
5651;BME280;40241;52.684;9.758;2022-11-28T01:35:28;101182.41;;;8.67;70.47
5651;BME280;40241;52.684;9.758;2022-11-28T01:37:54;101201.63;;;8.67;70.24
5651;BME280;40241;52.684;9.758;2022-11-28T01:40:19;101196.91;;;8.68;70.46
5651;BME280;40241;52.684;9.758;2022-11-28T01:42:44;101180.09;;;8.75;70.24
5651;BME280;40241;52.684;9.758;2022-11-28T01:45:29;101169.22;;;8.80;70.24
5651;BME280;40241;52.684;9.758;2022-11-28T01:47:56;101182.03;;;8.83;70.25
5651;BME280;40241;52.684;9.758;2022-11-28T01:50:24;101189.50;;;8.83;70.20
5651;BME280;40241;52.684;9.758;2022-11-28T01:52:55;101160.56;;;8.82;69.88
5651;BME280;40241;52.684;9.758;2022-11-28T01:55:24;101134.69;;;8.74;69.79
5651;BME280;40241;52.684;9.758;2022-11-28T01:57:51;101136.25;;;8.66;70.28
5651;BME280;40241;52.684;9.758;2022-11-28T02:00:19;101136.25;;;8.66;70.31
5651;BME280;40241;52.684;9.758;2022-11-28T02:02:51;101096.94;;;8.69;70.00
5651;BME280;40241;52.684;9.758;2022-11-28T02:05:19;101097.38;;;8.67;70.15
5651;BME280;40241;52.684;9.758;2022-11-28T02:07:46;101102.59;;;8.65;70.23
5651;BME280;40241;52.684;9.758;2022-11-28T02:10:17;101086.41;;;8.67;70.09
5651;BME280;40241;52.684;9.758;2022-11-28T02:13:08;101068.94;;;8.65;69.60
5651;BME280;40241;52.684;9.758;2022-11-28T02:33:59;101054.69;;;8.75;68.99
5651;BME280;40241;52.684;9.758;2022-11-28T02:36:35;101058.91;;;8.76;69.74
5651;BME280;40241;52.684;9.758;2022-11-28T02:42:07;101060.44;;;8.77;69.42
5651;BME280;40241;52.684;9.758;2022-11-28T02:44:52;101057.88;;;8.74;69.41
5651;BME280;40241;52.684;9.758;2022-11-28T02:47:24;101066.38;;;8.76;69.69
5651;BME280;40241;52.684;9.758;2022-11-28T02:50:07;101044.44;;;8.76;69.31
5651;BME280;40241;52.684;9.758;2022-11-28T02:52:52;101042.47;;;8.76;68.91
5651;BME280;40241;52.684;9.758;2022-11-28T02:55:21;101055.41;;;8.76;69.54
5651;BME280;40241;52.684;9.758;2022-11-28T02:57:52;101071.13;;;8.75;69.40
5651;BME280;40241;52.684;9.758;2022-11-28T03:06:31;101089.97;;;8.82;69.09
5651;BME280;40241;52.684;9.758;2022-11-28T03:11:57;101088.47;;;8.81;69.07
5651;BME280;40241;52.684;9.758;2022-11-28T03:14:50;101085.22;;;8.83;68.84
5651;BME280;40241;52.684;9.758;2022-11-28T03:17:50;101058.56;;;8.83;68.94
5651;BME280;40241;52.684;9.758;2022-11-28T03:25:39;101039.28;;;8.78;69.39
5651;BME280;40241;52.684;9.758;2022-11-28T03:28:18;101073.41;;;8.77;69.17
5651;BME280;40241;52.684;9.758;2022-11-28T03:30:50;101068.97;;;8.79;69.46
5651;BME280;40241;52.684;9.758;2022-11-28T03:33:17;101070.75;;;8.82;69.29
5651;BME280;40241;52.684;9.758;2022-11-28T03:35:48;101033.88;;;8.83;69.15
5651;BME280;40241;52.684;9.758;2022-11-28T03:38:44;101068.97;;;8.79;68.92
5651;BME280;40241;52.684;9.758;2022-11-28T03:41:23;101036.81;;;8.80;68.90
5651;BME280;40241;52.684;9.758;2022-11-28T03:43:54;101044.28;;;8.79;69.23
5651;BME280;40241;52.684;9.758;2022-11-28T03:46:30;101042.28;;;8.80;69.45
5651;BME280;40241;52.684;9.758;2022-11-28T03:48:59;101046.38;;;8.84;69.34
5651;BME280;40241;52.684;9.758;2022-11-28T03:51:31;101058.38;;;8.87;69.10
5651;BME280;40241;52.684;9.758;2022-11-28T03:56:47;101054.97;;;8.92;68.70
5651;BME280;40241;52.684;9.758;2022-11-28T03:59:20;101068.22;;;8.93;68.77
5651;BME280;40241;52.684;9.758;2022-11-28T04:02:13;101042.78;;;8.93;68.42
5651;BME280;40241;52.684;9.758;2022-11-28T04:04:54;101056.50;;;8.93;68.73
5651;BME280;40241;52.684;9.758;2022-11-28T04:07:46;101048.44;;;8.89;68.25
5651;BME280;40241;52.684;9.758;2022-11-28T04:10:26;101038.72;;;8.88;68.67
5651;BME280;40241;52.684;9.758;2022-11-28T04:13:14;101048.16;;;8.87;68.57
5651;BME280;40241;52.684;9.758;2022-11-28T04:15:59;101050.91;;;8.87;68.28
5651;BME280;40241;52.684;9.758;2022-11-28T04:21:42;101044.66;;;8.87;68.42
5651;BME280;40241;52.684;9.758;2022-11-28T04:24:12;101049.41;;;8.86;68.48
5651;BME280;40241;52.684;9.758;2022-11-28T04:26:56;101043.91;;;8.86;68.42
5651;BME280;40241;52.684;9.758;2022-11-28T04:29:24;101046.19;;;8.88;68.75
5651;BME280;40241;52.684;9.758;2022-11-28T04:31:54;101029.25;;;8.89;68.49
5651;BME280;40241;52.684;9.758;2022-11-28T04:34:21;101041.75;;;8.90;68.31
5651;BME280;40241;52.684;9.758;2022-11-28T04:36:49;101041.47;;;8.88;68.15
5651;BME280;40241;52.684;9.758;2022-11-28T04:39:22;101041.75;;;8.90;68.37
5651;BME280;40241;52.684;9.758;2022-11-28T04:41:55;101042.97;;;8.89;68.17
5651;BME280;40241;52.684;9.758;2022-11-28T04:47:15;101038.53;;;8.92;68.20
5651;BME280;40241;52.684;9.758;2022-11-28T04:49:41;101043.72;;;8.90;68.25
5651;BME280;40241;52.684;9.758;2022-11-28T04:52:19;101039.28;;;8.92;68.20
5651;BME280;40241;52.684;9.758;2022-11-28T04:55:03;101043.25;;;8.91;67.72
5651;BME280;40241;52.684;9.758;2022-11-28T04:57:37;101037.75;;;8.91;68.12
5651;BME280;40241;52.684;9.758;2022-11-28T05:00:08;101029.06;;;8.93;68.07
5651;BME280;40241;52.684;9.758;2022-11-28T05:02:35;101049.31;;;8.95;68.13
5651;BME280;40241;52.684;9.758;2022-11-28T05:05:09;101047.50;;;8.92;67.76
5651;BME280;40241;52.684;9.758;2022-11-28T05:07:35;101031.81;;;8.93;68.10
5651;BME280;40241;52.684;9.758;2022-11-28T05:10:01;101036.72;;;8.89;67.80
5651;BME280;40241;52.684;9.758;2022-11-28T05:12:26;101035.22;;;8.88;68.13
5651;BME280;40241;52.684;9.758;2022-11-28T05:14:52;101035.22;;;8.88;68.04
5651;BME280;40241;52.684;9.758;2022-11-28T05:17:17;101021.69;;;8.84;67.96
5651;BME280;40241;52.684;9.758;2022-11-28T05:19:42;101030.19;;;8.86;67.93
5651;BME280;40241;52.684;9.758;2022-11-28T05:22:08;101033.69;;;8.87;67.91
5651;BME280;40241;52.684;9.758;2022-11-28T05:24:33;101037.66;;;8.86;67.80
5651;BME280;40241;52.684;9.758;2022-11-28T05:26:59;101044.00;;;8.92;68.00
5651;BME280;40241;52.684;9.758;2022-11-28T05:29:24;101032.28;;;8.91;67.79
5651;BME280;40241;52.684;9.758;2022-11-28T05:31:50;101052.25;;;8.92;67.50
5651;BME280;40241;52.684;9.758;2022-11-28T05:34:15;101023.75;;;8.89;67.60
5651;BME280;40241;52.684;9.758;2022-11-28T05:36:41;101037.03;;;8.91;67.63
5651;BME280;40241;52.684;9.758;2022-11-28T05:39:06;101093.13;;;8.90;67.75
5651;BME280;40241;52.684;9.758;2022-11-28T05:41:32;101044.94;;;8.89;67.71
5651;BME280;40241;52.684;9.758;2022-11-28T05:43:58;101030.19;;;8.86;67.68
5651;BME280;40241;52.684;9.758;2022-11-28T05:46:24;101038.16;;;8.84;67.60
5651;BME280;40241;52.684;9.758;2022-11-28T05:48:50;101025.66;;;8.83;67.66
5651;BME280;40241;52.684;9.758;2022-11-28T05:51:16;101033.09;;;8.83;67.60
5651;BME280;40241;52.684;9.758;2022-11-28T05:53:41;101025.06;;;8.79;67.66
5651;BME280;40241;52.684;9.758;2022-11-28T05:56:09;101031.59;;;8.82;67.64
5651;BME280;40241;52.684;9.758;2022-11-28T05:58:35;101028.38;;;8.83;67.62
5651;BME280;40241;52.684;9.758;2022-11-28T06:01:11;101033.31;;;8.79;67.52
5651;BME280;40241;52.684;9.758;2022-11-28T06:03:36;101029.50;;;8.77;67.60
5651;BME280;40241;52.684;9.758;2022-11-28T06:06:02;101037.53;;;8.80;67.49
5651;BME280;40241;52.684;9.758;2022-11-28T06:08:28;101013.34;;;8.79;67.35
5651;BME280;40241;52.684;9.758;2022-11-28T06:10:56;101018.53;;;8.77;67.59
5651;BME280;40241;52.684;9.758;2022-11-28T06:13:22;101021.28;;;8.77;67.55
5651;BME280;40241;52.684;9.758;2022-11-28T06:15:48;101028.66;;;8.71;67.61
5651;BME280;40241;52.684;9.758;2022-11-28T06:18:13;101027.88;;;8.70;67.51
5651;BME280;40241;52.684;9.758;2022-11-28T06:20:38;101028.81;;;8.67;67.46
5651;BME280;40241;52.684;9.758;2022-11-28T06:23:04;101019.38;;;8.68;67.57
5651;BME280;40241;52.684;9.758;2022-11-28T06:25:29;101015.38;;;8.69;67.40
5651;BME280;40241;52.684;9.758;2022-11-28T06:27:54;101028.25;;;8.63;67.44
5651;BME280;40241;52.684;9.758;2022-11-28T06:30:20;101049.81;;;8.56;67.53
5651;BME280;40241;52.684;9.758;2022-11-28T06:32:45;101026.47;;;8.60;67.51
5651;BME280;40241;52.684;9.758;2022-11-28T06:35:11;101035.91;;;8.59;67.64
5651;BME280;40241;52.684;9.758;2022-11-28T06:37:36;101031.66;;;8.58;67.42
5651;BME280;40241;52.684;9.758;2022-11-28T06:40:02;101040.16;;;8.60;67.60
5651;BME280;40241;52.684;9.758;2022-11-28T06:42:28;101050.66;;;8.62;67.46
5651;BME280;40241;52.684;9.758;2022-11-28T06:44:53;101023.78;;;8.51;67.69
5651;BME280;40241;52.684;9.758;2022-11-28T06:47:18;101013.66;;;8.57;67.41
5651;BME280;40241;52.684;9.758;2022-11-28T06:49:44;101029.19;;;8.60;67.44
5651;BME280;40241;52.684;9.758;2022-11-28T06:52:09;101030.69;;;8.61;67.24
5651;BME280;40241;52.684;9.758;2022-11-28T06:54:34;101022.19;;;8.59;67.38
5651;BME280;40241;52.684;9.758;2022-11-28T06:57:00;101034.09;;;8.56;67.39
5651;BME280;40241;52.684;9.758;2022-11-28T06:59:25;101032.69;;;8.61;67.43
5651;BME280;40241;52.684;9.758;2022-11-28T07:01:51;101034.09;;;8.56;67.51
5651;BME280;40241;52.684;9.758;2022-11-28T07:04:16;101042.63;;;8.58;67.46
5651;BME280;40241;52.684;9.758;2022-11-28T07:06:41;101034.09;;;8.56;67.40
5651;BME280;40241;52.684;9.758;2022-11-28T07:09:08;101039.13;;;8.58;67.41
5651;BME280;40241;52.684;9.758;2022-11-28T07:11:34;101053.47;;;8.53;67.38
5651;BME280;40241;52.684;9.758;2022-11-28T07:14:00;101040.16;;;8.60;67.27
5651;BME280;40241;52.684;9.758;2022-11-28T07:16:29;101049.50;;;8.54;67.50
5651;BME280;40241;52.684;9.758;2022-11-28T07:18:55;101057.25;;;8.55;67.39
5651;BME280;40241;52.684;9.758;2022-11-28T07:21:21;101033.69;;;8.49;67.51
5651;BME280;40241;52.684;9.758;2022-11-28T07:23:46;101063.50;;;8.56;67.28
5651;BME280;40241;52.684;9.758;2022-11-28T07:26:14;101061.50;;;8.56;67.45
5651;BME280;40241;52.684;9.758;2022-11-28T07:28:40;101062.75;;;8.55;67.52
5651;BME280;40241;52.684;9.758;2022-11-28T07:31:11;101053.28;;;8.56;67.32
5651;BME280;40241;52.684;9.758;2022-11-28T07:33:40;101067.19;;;8.53;67.64
5651;BME280;40241;52.684;9.758;2022-11-28T07:36:10;101062.94;;;8.52;67.81
5651;BME280;40241;52.684;9.758;2022-11-28T07:38:36;101065.78;;;8.57;67.53
5651;BME280;40241;52.684;9.758;2022-11-28T07:41:09;101056.78;;;8.57;67.28
5651;BME280;40241;52.684;9.758;2022-11-28T07:43:34;101052.88;;;8.49;67.22
5651;BME280;40241;52.684;9.758;2022-11-28T07:46:05;101064.91;;;8.51;67.41
5651;BME280;40241;52.684;9.758;2022-11-28T07:48:30;101064.72;;;8.55;67.25
5651;BME280;40241;52.684;9.758;2022-11-28T07:50:56;101056.97;;;8.53;67.44
5651;BME280;40241;52.684;9.758;2022-11-28T07:53:21;101064.72;;;8.55;67.26
5651;BME280;40241;52.684;9.758;2022-11-28T07:55:47;101067.31;;;8.58;67.12
5651;BME280;40241;52.684;9.758;2022-11-28T07:58:12;101071.84;;;8.61;67.24
5651;BME280;40241;52.684;9.758;2022-11-28T08:00:38;101054.16;;;8.62;67.32
5651;BME280;40241;52.684;9.758;2022-11-28T08:03:04;101063.59;;;8.61;67.16
5651;BME280;40241;52.684;9.758;2022-11-28T08:05:29;101054.16;;;8.62;67.05
5651;BME280;40241;52.684;9.758;2022-11-28T08:07:54;101064.66;;;8.64;67.17
5651;BME280;40241;52.684;9.758;2022-11-28T08:10:20;101062.50;;;8.68;67.07
5651;BME280;40241;52.684;9.758;2022-11-28T08:12:46;101063.84;;;8.72;67.14
5651;BME280;40241;52.684;9.758;2022-11-28T08:15:11;101070.25;;;8.69;67.02
5651;BME280;40241;52.684;9.758;2022-11-28T08:17:37;101069.66;;;8.65;66.78
5651;BME280;40241;52.684;9.758;2022-11-28T08:20:02;101065.81;;;8.72;67.03
5651;BME280;40241;52.684;9.758;2022-11-28T08:22:28;101077.25;;;8.70;67.11
5651;BME280;40241;52.684;9.758;2022-11-28T08:24:53;101102.44;;;8.69;67.12
